Welcome to Northern Hawkes Bay. New Zealand.
PWS Header
      nz Flag



Hit Counter


W3C Valid W3C Valid logo


    Wairoa

Select any of the Stations below to visit their websites.










Historic Data from Weather Underground
Select the location of interest below. Wairoa is the default. Please have patience, this Data is slow to load in.
Northern Hawkes Bay Historical Data
Daily Summary for August 10, 2017 Units:  Metric    English   Both
« Previous Day
Next Day »
Daily Weekly Monthly Yearly Custom
  High: Low: Average:
Temperature: 18.3 °C 7.6 °C 12.7 °C
Dew Point: 12.7 °C 6.6 °C 8.8 °C
Humidity: 99% 51% 79%
Wind Speed: 21.9km/h 0.0km/h 4.6km/h
Wind Gust: 29.4km/h - -
Wind- - West
Pressure: 1002.9 hPa 999.9 hPa -
Precipitation: 1.0 mm    
Historical Graphs
 
 
Tabular Data for August 10, 2017
Time Temperature Dew Point Pressure Wind Wind Speed Wind Gust Humidity Rainfall Rate (Hourly) solar
00:03 12.4 °C 11.9 °C 1001.9 hPa WSW 1.1 km/h 3.5 km/h 97% 0.0 mm 0 W/m2
00:08 12.4 °C 11.9 °C 1001.6 hPa ESE 1.1 km/h 2.6 km/h 97% 0.0 mm 0 W/m2
00:13 12.3 °C 11.8 °C 1001.6 hPa NW 3.5 km/h 5.0 km/h 97% 0.0 mm 0 W/m2
00:18 12.3 °C 11.8 °C 1001.9 hPa WNW 1.1 km/h 6.1 km/h 97% 0.0 mm 0 W/m2
00:23 12.4 °C 11.9 °C 1001.9 hPa WNW 2.6 km/h 6.1 km/h 97% 0.0 mm 0 W/m2
00:28 12.4 °C 11.9 °C 1001.6 hPa Calm   5.0 km/h 97% 0.0 mm 0 W/m2
00:33 12.4 °C 11.9 °C 1001.9 hPa Calm   5.0 km/h 97% 0.0 mm 0 W/m2
00:38 12.4 °C 11.9 °C 1001.9 hPa Calm   2.6 km/h 97% 0.0 mm 0 W/m2
00:43 12.4 °C 11.9 °C 1002.3 hPa NNW 2.6 km/h 3.5 km/h 97% 0.0 mm 0 W/m2
00:48 12.4 °C 11.9 °C 1001.9 hPa North 2.6 km/h 3.5 km/h 97% 0.0 mm 0 W/m2
00:53 12.4 °C 11.9 °C 1001.9 hPa Calm   3.5 km/h 97% 0.0 mm 0 W/m2
00:58 12.4 °C 11.9 °C 1002.3 hPa South 1.1 km/h 3.5 km/h 97% 0.0 mm 0 W/m2
01:03 12.4 °C 11.9 °C 1001.9 hPa SSE 2.6 km/h 3.5 km/h 97% 0.0 mm 0 W/m2
01:08 12.5 °C 12.1 °C 1002.3 hPa Calm   3.5 km/h 97% 0.0 mm 0 W/m2
01:13 12.7 °C 12.2 °C 1002.3 hPa SE 2.6 km/h 6.1 km/h 97% 0.0 mm 0 W/m2
01:18 12.8 °C 12.3 °C 1001.9 hPa Calm   6.1 km/h 97% 0.0 mm 0 W/m2
01:23 13.0 °C 12.7 °C 1002.3 hPa NNE 1.1 km/h 5.0 km/h 98% 0.0 mm 0 W/m2
01:28 13.0 °C 12.7 °C 1002.3 hPa NNE 2.6 km/h 5.0 km/h 98% 0.0 mm 0 W/m2
01:33 13.0 °C 12.7 °C 1002.3 hPa NNE 1.1 km/h 5.0 km/h 98% 0.3 mm 0 W/m2
01:38 12.9 °C 12.4 °C 1002.3 hPa NNE 1.1 km/h 3.5 km/h 97% 0.3 mm 0 W/m2
01:43 12.7 °C 12.2 °C 1002.3 hPa North 1.1 km/h 3.5 km/h 97% 0.3 mm 0 W/m2
01:48 12.6 °C 12.2 °C 1002.3 hPa NNE 2.6 km/h 3.5 km/h 97% 0.3 mm 0 W/m2
01:53 12.5 °C 12.1 °C 1002.3 hPa NE 1.1 km/h 3.5 km/h 97% 0.3 mm 0 W/m2
01:58 12.4 °C 11.9 °C 1002.3 hPa NE 1.1 km/h 3.5 km/h 97% 0.3 mm 0 W/m2
02:18 12.3 °C 11.8 °C 1002.3 hPa NE 2.6 km/h 5.0 km/h 97% 0.3 mm 0 W/m2
02:23 12.3 °C 11.8 °C 1001.9 hPa NE 1.1 km/h 5.0 km/h 97% 0.3 mm 0 W/m2
02:28 12.3 °C 11.8 °C 1001.9 hPa North 2.6 km/h 5.0 km/h 97% 0.3 mm 0 W/m2
02:33 12.2 °C 11.7 °C 1001.9 hPa NW 2.6 km/h 5.0 km/h 97% 0.0 mm 0 W/m2
02:38 12.1 °C 11.7 °C 1001.9 hPa Calm   5.0 km/h 97% 0.0 mm 0 W/m2
02:43 12.1 °C 11.7 °C 1001.6 hPa NW 2.6 km/h 3.5 km/h 97% 0.0 mm 0 W/m2
02:48 11.9 °C 11.6 °C 1001.9 hPa NW 1.1 km/h 3.5 km/h 98% 0.0 mm 0 W/m2
02:53 11.8 °C 11.5 °C 1001.6 hPa NNW 1.1 km/h 3.5 km/h 98% 0.0 mm 0 W/m2
02:58 11.8 °C 11.5 °C 1001.6 hPa NW 2.6 km/h 6.1 km/h 98% 0.0 mm 0 W/m2
03:03 11.6 °C 11.3 °C 1001.2 hPa WNW 2.6 km/h 6.1 km/h 98% 0.0 mm 0 W/m2
03:08 11.3 °C 11.0 °C 1001.2 hPa Calm   3.5 km/h 98% 0.0 mm 0 W/m2
03:13 11.1 °C 10.8 °C 1001.2 hPa WNW 1.1 km/h 3.5 km/h 98% 0.0 mm 0 W/m2
03:18 10.9 °C 10.8 °C 1001.2 hPa West 3.5 km/h 6.1 km/h 99% 0.0 mm 0 W/m2
03:23 11.4 °C 11.1 °C 1001.2 hPa West 5.0 km/h 7.2 km/h 98% 0.0 mm 0 W/m2
03:28 11.7 °C 11.4 °C 1001.2 hPa West 1.1 km/h 7.2 km/h 98% 0.0 mm 0 W/m2
03:33 12.0 °C 11.4 °C 1001.2 hPa WNW 2.6 km/h 6.1 km/h 96% 0.0 mm 0 W/m2
03:38 11.7 °C 11.1 °C 1001.2 hPa NNW 2.6 km/h 5.0 km/h 96% 0.0 mm 0 W/m2
03:43 11.5 °C 10.6 °C 1001.2 hPa NNE 1.1 km/h 5.0 km/h 94% 0.0 mm 0 W/m2
03:48 11.2 °C 10.1 °C 1001.2 hPa Calm   5.0 km/h 93% 0.0 mm 0 W/m2
03:53 10.9 °C 9.8 °C 1001.6 hPa Calm   3.5 km/h 93% 0.0 mm 0 W/m2
03:58 10.7 °C 9.6 °C 1001.2 hPa Calm     93% 0.0 mm 0 W/m2
04:03 10.8 °C 9.7 °C 1001.2 hPa NE 3.5 km/h 5.0 km/h 93% 0.0 mm 0 W/m2
04:08 11.1 °C 10.0 °C 1001.2 hPa NE 3.5 km/h 6.1 km/h 93% 0.0 mm 0 W/m2
04:13 11.1 °C 9.8 °C 1001.2 hPa NE 2.6 km/h 6.1 km/h 92% 0.0 mm 0 W/m2
04:18 11.1 °C 9.5 °C 1001.2 hPa Calm   5.0 km/h 90% 0.0 mm 0 W/m2
04:23 10.9 °C 9.3 °C 1001.2 hPa NNE 1.1 km/h 3.5 km/h 90% 0.0 mm 0 W/m2
04:28 10.6 °C 9.1 °C 1001.6 hPa NNW 2.6 km/h 6.1 km/h 90% 0.0 mm 0 W/m2
04:33 10.5 °C 8.9 °C 1001.6 hPa NW 3.5 km/h 6.1 km/h 90% 0.0 mm 0 W/m2
04:38 10.5 °C 8.9 °C 1001.2 hPa NW 2.6 km/h 5.0 km/h 90% 0.0 mm 0 W/m2
04:43 10.6 °C 9.1 °C 1001.6 hPa NNW 5.0 km/h 6.1 km/h 90% 0.0 mm 0 W/m2
04:48 10.6 °C 8.9 °C 1001.2 hPa North 3.5 km/h 7.2 km/h 89% 0.0 mm 0 W/m2
04:53 10.4 °C 8.7 °C 1001.2 hPa NNW 2.6 km/h 7.2 km/h 89% 0.0 mm 0 W/m2
04:58 10.1 °C 8.4 °C 1001.2 hPa NNW 3.5 km/h 7.2 km/h 89% 0.0 mm 0 W/m2
05:03 9.9 °C 8.3 °C 1001.2 hPa NW 3.5 km/h 7.2 km/h 90% 0.0 mm 0 W/m2
05:08 9.8 °C 8.2 °C 1001.2 hPa NW 2.6 km/h 6.1 km/h 90% 0.0 mm 0 W/m2
05:13 9.8 °C 8.2 °C 1001.2 hPa NW 1.1 km/h 6.1 km/h 90% 0.0 mm 0 W/m2
05:19 9.5 °C 7.9 °C 1001.2 hPa NW 2.6 km/h 5.0 km/h 90% 0.0 mm 0 W/m2
05:24 9.5 °C 7.9 °C 1001.6 hPa NNW 3.5 km/h 5.0 km/h 90% 0.0 mm 0 W/m2
05:29 9.4 °C 7.8 °C 1001.2 hPa NNW 3.5 km/h 6.1 km/h 90% 0.0 mm 0 W/m2
05:34 8.9 °C 7.5 °C 1001.2 hPa North 5.0 km/h 6.1 km/h 91% 0.0 mm 0 W/m2
05:39 8.5 °C 7.3 °C 1000.9 hPa North 2.6 km/h 7.2 km/h 92% 0.0 mm 0 W/m2
05:44 8.5 °C 7.4 °C 1001.2 hPa North 1.1 km/h 7.2 km/h 93% 0.0 mm 0 W/m2
05:49 8.5 °C 7.6 °C 1001.2 hPa NNE 2.6 km/h 5.0 km/h 94% 0.0 mm 0 W/m2
05:54 8.5 °C 7.7 °C 1001.2 hPa NE 2.6 km/h 5.0 km/h 95% 0.0 mm 0 W/m2
05:59 8.5 °C 7.7 °C 1001.6 hPa NE 1.1 km/h 5.0 km/h 95% 0.0 mm 0 W/m2
06:04 8.5 °C 7.7 °C 1001.2 hPa NE 2.6 km/h 5.0 km/h 95% 0.0 mm 0 W/m2
06:09 8.5 °C 7.9 °C 1001.6 hPa NNE 1.1 km/h 6.1 km/h 96% 0.0 mm 0 W/m2
06:14 8.5 °C 7.9 °C 1001.6 hPa NNE 2.6 km/h 6.1 km/h 96% 0.0 mm 0 W/m2
06:19 8.7 °C 8.1 °C 1001.6 hPa NNE 3.5 km/h 6.1 km/h 96% 0.0 mm 0 W/m2
06:24 8.5 °C 7.9 °C 1001.6 hPa NNW 3.5 km/h 6.1 km/h 96% 0.0 mm 0 W/m2
06:29 8.2 °C 7.6 °C 1001.6 hPa NNW 2.6 km/h 6.1 km/h 96% 0.0 mm 0 W/m2
06:34 8.2 °C 7.6 °C 1001.6 hPa NNW 2.6 km/h 5.0 km/h 96% 0.0 mm 0 W/m2
06:39 7.8 °C 7.2 °C 1001.6 hPa North 1.1 km/h 6.1 km/h 96% 0.0 mm 0 W/m2
06:44 7.8 °C 7.2 °C 1001.9 hPa NNE 5.0 km/h 7.2 km/h 96% 0.0 mm 0 W/m2
06:49 7.8 °C 7.3 °C 1001.6 hPa North 5.0 km/h 7.2 km/h 97% 0.0 mm 0 W/m2
06:54 7.8 °C 7.3 °C 1001.9 hPa North 2.6 km/h 6.1 km/h 97% 0.0 mm 0 W/m2
06:59 7.7 °C 7.3 °C 1001.9 hPa North 1.1 km/h 6.1 km/h 97% 0.0 mm 0 W/m2
07:04 7.7 °C 7.3 °C 1001.9 hPa North 2.6 km/h 6.1 km/h 97% 0.0 mm 0 W/m2
07:09 7.6 °C 7.2 °C 1001.9 hPa NNW 2.6 km/h 6.1 km/h 97% 0.0 mm 1 W/m2
07:14 7.6 °C 7.2 °C 1001.9 hPa North 2.6 km/h 5.0 km/h 97% 0.0 mm 4 W/m2
07:19 7.6 °C 7.2 °C 1001.9 hPa North 3.5 km/h 5.0 km/h 97% 0.0 mm 8 W/m2
07:24 7.6 °C 7.2 °C 1001.9 hPa NNW 2.6 km/h 5.0 km/h 97% 0.0 mm 18 W/m2
07:29 7.7 °C 7.3 °C 1001.9 hPa NNW 2.6 km/h 5.0 km/h 97% 0.0 mm 42 W/m2
07:34 8.1 °C 7.8 °C 1001.9 hPa NNW 2.6 km/h 5.0 km/h 98% 0.0 mm 52 W/m2
07:39 8.5 °C 8.2 °C 1002.3 hPa North 3.5 km/h 5.0 km/h 98% 0.0 mm 66 W/m2
07:44 8.7 °C 8.4 °C 1002.3 hPa NNW 2.6 km/h 6.1 km/h 98% 0.0 mm 77 W/m2
07:49 9.2 °C 8.8 °C 1002.3 hPa Calm   6.1 km/h 97% 0.0 mm 85 W/m2
07:54 9.8 °C 9.5 °C 1001.9 hPa North 2.6 km/h 3.5 km/h 98% 0.0 mm 62 W/m2
07:59 9.9 °C 9.4 °C 1002.6 hPa North 3.5 km/h 5.0 km/h 97% 0.0 mm 44 W/m2
08:04 9.7 °C 9.1 °C 1002.6 hPa NNW 2.6 km/h 6.1 km/h 96% 0.0 mm 45 W/m2
08:09 9.6 °C 8.8 °C 1002.3 hPa NNW 2.6 km/h 6.1 km/h 95% 0.0 mm 42 W/m2
08:14 9.6 °C 8.8 °C 1002.3 hPa North 1.1 km/h 5.0 km/h 95% 0.0 mm 43 W/m2
08:19 9.7 °C 8.9 °C 1002.3 hPa NNE 5.0 km/h 7.2 km/h 95% 0.0 mm 44 W/m2
08:24 9.7 °C 8.9 °C 1002.6 hPa North 3.5 km/h 7.2 km/h 95% 0.0 mm 52 W/m2
08:29 9.8 °C 9.1 °C 1002.6 hPa NNW 3.5 km/h 7.2 km/h 95% 0.0 mm 61 W/m2
08:34 10.0 °C 9.1 °C 1002.6 hPa North 3.5 km/h 6.1 km/h 94% 0.0 mm 73 W/m2
08:39 10.3 °C 9.4 °C 1002.6 hPa North 3.5 km/h 6.1 km/h 94% 0.0 mm 67 W/m2
08:44 10.6 °C 9.7 °C 1002.6 hPa North 1.1 km/h 5.0 km/h 94% 0.0 mm 82 W/m2
08:49 11.0 °C 10.1 °C 1002.6 hPa NNW 3.5 km/h 5.0 km/h 94% 0.0 mm 91 W/m2
08:54 11.5 °C 10.4 °C 1002.6 hPa NNW 2.6 km/h 6.1 km/h 93% 0.0 mm 111 W/m2
08:59 12.2 °C 10.8 °C 1002.3 hPa NNW 1.1 km/h 6.1 km/h 91% 0.0 mm 134 W/m2
09:04 13.0 °C 11.4 °C 1002.6 hPa North 2.6 km/h 6.1 km/h 90% 0.0 mm 287 W/m2
09:09 14.0 °C 11.9 °C 1002.3 hPa North 3.5 km/h 5.0 km/h 87% 0.0 mm 295 W/m2
09:14 14.2 °C 11.6 °C 1002.3 hPa NNW 2.6 km/h 6.1 km/h 84% 0.0 mm 311 W/m2
09:20 15.1 °C 11.9 °C 1002.3 hPa NNW 2.6 km/h 6.1 km/h 81% 0.0 mm 326 W/m2
09:25 15.7 °C 11.9 °C 1002.3 hPa North 3.5 km/h 7.2 km/h 78% 0.0 mm 125 W/m2
09:30 15.8 °C 11.4 °C 1002.3 hPa NNE 2.6 km/h 7.2 km/h 75% 0.0 mm 187 W/m2
09:35 16.2 °C 11.2 °C 1002.3 hPa NE 3.5 km/h 7.2 km/h 72% 0.0 mm 369 W/m2
09:40 16.8 °C 10.4 °C 1002.3 hPa NE 5.0 km/h 8.7 km/h 66% 0.0 mm 365 W/m2
09:45 16.6 °C 9.6 °C 1002.3 hPa ENE 7.2 km/h 14.8 km/h 63% 0.0 mm 143 W/m2
09:50 15.8 °C 9.2 °C 1002.3 hPa ENE 5.0 km/h 14.8 km/h 65% 0.0 mm 144 W/m2
09:52 15.7 °C 9.2 °C 1002.3 hPa ENE 7.2 km/h 14.8 km/h 65% 0.0 mm 150 W/m2
09:57 15.6 °C 9.3 °C 1002.3 hPa NE 1.1 km/h 12.2 km/h 66% 0.0 mm 126 W/m2
10:02 15.6 °C 10.4 °C 1002.3 hPa NNE 3.5 km/h 11.1 km/h 71% 0.0 mm 90 W/m2
10:07 15.6 °C 10.8 °C 1002.6 hPa NNW 1.1 km/h 9.7 km/h 73% 0.0 mm 85 W/m2
10:12 16.1 °C 11.1 °C 1002.6 hPa WNW 1.1 km/h 7.2 km/h 72% 0.0 mm 97 W/m2
10:17 16.3 °C 10.2 °C 1002.6 hPa NNW 6.1 km/h 13.4 km/h 67% 0.0 mm 104 W/m2
10:22 16.5 °C 9.7 °C 1002.6 hPa North 3.5 km/h 13.4 km/h 64% 0.0 mm 92 W/m2
10:27 16.5 °C 9.7 °C 1002.6 hPa North 3.5 km/h 11.1 km/h 64% 0.0 mm 99 W/m2
10:32 16.6 °C 9.8 °C 1002.6 hPa North 3.5 km/h 11.1 km/h 64% 0.0 mm 143 W/m2
10:37 16.4 °C 9.1 °C 1002.6 hPa NNW 5.0 km/h 15.8 km/h 62% 0.0 mm 130 W/m2
10:42 16.3 °C 9.5 °C 1002.6 hPa NNW 7.2 km/h 15.8 km/h 64% 0.0 mm 199 W/m2
10:47 16.8 °C 9.7 °C 1002.6 hPa North 6.1 km/h 12.2 km/h 63% 0.0 mm 360 W/m2
10:52 17.1 °C 9.5 °C 1002.9 hPa NNW 7.2 km/h 14.8 km/h 61% 0.0 mm 140 W/m2
10:57 16.6 °C 9.1 °C 1002.9 hPa NNW 6.1 km/h 14.8 km/h 61% 0.0 mm 149 W/m2
11:02 16.6 °C 9.6 °C 1002.6 hPa North 6.1 km/h 12.2 km/h 63% 0.0 mm 204 W/m2
11:07 16.8 °C 9.7 °C 1002.6 hPa North 3.5 km/h 9.7 km/h 63% 0.0 mm 192 W/m2
11:12 16.6 °C 8.8 °C 1002.6 hPa NNW 6.1 km/h 13.4 km/h 60% 0.0 mm 181 W/m2
11:17 16.6 °C 9.1 °C 1002.6 hPa NNW 6.1 km/h 13.4 km/h 61% 0.0 mm 178 W/m2
11:22 16.8 °C 9.5 °C 1002.6 hPa North 7.2 km/h 12.2 km/h 62% 0.0 mm 178 W/m2
11:27 16.9 °C 9.3 °C 1002.3 hPa North 2.6 km/h 12.2 km/h 61% 0.0 mm 165 W/m2
11:32 16.7 °C 8.9 °C 1002.6 hPa NNW 6.1 km/h 11.1 km/h 60% 0.0 mm 113 W/m2
11:37 16.6 °C 9.1 °C 1002.3 hPa NNW 2.6 km/h 12.2 km/h 61% 0.0 mm 92 W/m2
11:42 16.4 °C 8.6 °C 1002.6 hPa North 6.1 km/h 12.2 km/h 60% 0.0 mm 92 W/m2
11:47 16.3 °C 8.5 °C 1002.3 hPa North 7.2 km/h 14.8 km/h 60% 0.0 mm 130 W/m2
11:52 16.4 °C 8.4 °C 1001.9 hPa North 5.0 km/h 14.8 km/h 59% 0.0 mm 168 W/m2
11:57 16.6 °C 8.6 °C 1001.9 hPa North 6.1 km/h 12.2 km/h 59% 0.0 mm 171 W/m2
12:03 16.7 °C 8.7 °C 1001.9 hPa NNW 8.7 km/h 12.2 km/h 59% 0.0 mm 182 W/m2
12:08 16.7 °C 8.2 °C 1001.9 hPa North 7.2 km/h 15.8 km/h 57% 0.0 mm 193 W/m2
12:13 16.7 °C 8.4 °C 1001.9 hPa NNW 5.0 km/h 15.8 km/h 58% 0.0 mm 190 W/m2
12:18 16.9 °C 8.8 °C 1001.9 hPa NNW 6.1 km/h 14.8 km/h 59% 0.0 mm 178 W/m2
12:23 16.7 °C 8.2 °C 1001.9 hPa NNW 9.7 km/h 18.3 km/h 57% 0.0 mm 159 W/m2
12:28 16.7 °C 8.2 °C 1001.9 hPa NW 7.2 km/h 18.3 km/h 57% 0.0 mm 192 W/m2
12:33 16.7 °C 8.2 °C 1001.6 hPa NW 11.1 km/h 17.2 km/h 57% 0.0 mm 204 W/m2
12:38 16.7 °C 8.2 °C 1001.6 hPa NW 8.7 km/h 19.5 km/h 57% 0.0 mm 211 W/m2
12:43 16.6 °C 8.3 °C 1001.6 hPa NW 12.2 km/h 20.9 km/h 58% 0.0 mm 78 W/m2
12:48 16.1 °C 9.1 °C 1001.9 hPa NW 21.9 km/h 29.4 km/h 63% 0.3 mm 79 W/m2
12:53 14.7 °C 8.8 °C 1001.6 hPa NW 7.2 km/h 29.4 km/h 68% 0.5 mm 84 W/m2
12:58 13.9 °C 9.3 °C 1001.2 hPa NNW 9.7 km/h 29.4 km/h 74% 0.5 mm 178 W/m2
13:03 14.5 °C 9.9 °C 1001.6 hPa North 12.2 km/h 19.5 km/h 74% 0.5 mm 128 W/m2
13:08 14.4 °C 9.4 °C 1001.2 hPa NNW 8.7 km/h 19.5 km/h 72% 0.5 mm 146 W/m2
13:13 14.7 °C 9.7 °C 1001.2 hPa NW 6.1 km/h 17.2 km/h 72% 0.5 mm 253 W/m2
13:18 15.3 °C 9.9 °C 1000.9 hPa NNW 11.1 km/h 14.8 km/h 70% 0.5 mm 215 W/m2
13:23 15.6 °C 9.9 °C 1000.9 hPa NNW 7.2 km/h 14.8 km/h 69% 0.5 mm 171 W/m2
13:28 15.8 °C 9.9 °C 1000.9 hPa North 8.7 km/h 13.4 km/h 68% 0.5 mm 355 W/m2
13:33 16.6 °C 10.2 °C 1000.9 hPa NNW 6.1 km/h 13.4 km/h 66% 0.5 mm 147 W/m2
13:38 16.0 °C 9.2 °C 1000.6 hPa NNW 7.2 km/h 14.8 km/h 64% 0.5 mm 106 W/m2
13:43 15.6 °C 9.5 °C 1000.9 hPa NNW 3.5 km/h 14.8 km/h 67% 0.5 mm 159 W/m2
13:48 15.8 °C 9.9 °C 1000.6 hPa NNW 7.2 km/h 11.1 km/h 68% 0.3 mm 153 W/m2
13:53 16.0 °C 10.1 °C 1000.6 hPa NNW 5.0 km/h 12.2 km/h 68% 0.0 mm 179 W/m2
13:58 16.2 °C 9.6 °C 1000.6 hPa NNW 8.7 km/h 13.4 km/h 65% 0.0 mm 134 W/m2
14:03 16.0 °C 8.7 °C 1000.6 hPa North 13.4 km/h 18.3 km/h 62% 0.0 mm 111 W/m2
14:08 15.8 °C 8.1 °C 1000.6 hPa NNW 6.1 km/h 18.3 km/h 60% 0.0 mm 118 W/m2
14:13 15.9 °C 7.9 °C 1000.6 hPa NNW 9.7 km/h 18.3 km/h 59% 0.0 mm 131 W/m2
14:18 16.0 °C 8.0 °C 1000.6 hPa North 8.7 km/h 15.8 km/h 59% 0.0 mm 131 W/m2
14:23 16.0 °C 7.5 °C 1000.6 hPa North 9.7 km/h 15.8 km/h 57% 0.0 mm 133 W/m2
14:28 16.5 °C 8.2 °C 1000.6 hPa North 7.2 km/h 15.8 km/h 58% 0.0 mm 131 W/m2
14:33 16.9 °C 8.1 °C 1000.6 hPa North 17.2 km/h 20.9 km/h 56% 0.0 mm 120 W/m2
14:38 17.1 °C 7.4 °C 1000.6 hPa North 11.1 km/h 20.9 km/h 53% 0.0 mm 93 W/m2
14:43 16.3 °C 7.5 °C 1000.2 hPa NNW 13.4 km/h 21.9 km/h 56% 0.0 mm 92 W/m2
14:48 16.5 °C 7.9 °C 1000.6 hPa NNW 13.4 km/h 21.9 km/h 57% 0.0 mm 91 W/m2
14:53 16.3 °C 7.8 °C 1000.6 hPa NNW 11.1 km/h 20.9 km/h 57% 0.0 mm 98 W/m2
14:58 17.0 °C 7.9 °C 1000.2 hPa NNW 13.4 km/h 20.9 km/h 55% 0.0 mm 92 W/m2
15:03 17.8 °C 8.7 °C 1000.2 hPa North 8.7 km/h 18.3 km/h 55% 0.0 mm 90 W/m2
15:08 17.9 °C 8.2 °C 1000.2 hPa North 11.1 km/h 19.5 km/h 53% 0.0 mm 88 W/m2
15:13 17.8 °C 8.1 °C 1000.2 hPa North 8.7 km/h 19.5 km/h 53% 0.0 mm 112 W/m2
15:23 17.9 °C 7.9 °C 1000.2 hPa North 9.7 km/h 21.9 km/h 52% 0.0 mm 112 W/m2
15:24 17.8 °C 7.8 °C 1000.6 hPa North 15.8 km/h 21.9 km/h 52% 0.0 mm 95 W/m2
15:31 16.7 °C 7.6 °C 1000.2 hPa North 12.2 km/h 23.3 km/h 55% 0.0 mm 91 W/m2
15:36 16.9 °C 8.1 °C 1000.2 hPa North 7.2 km/h 23.3 km/h 56% 0.0 mm 115 W/m2
15:38 17.1 °C 8.3 °C 1000.2 hPa NNW 6.1 km/h 21.9 km/h 56% 0.0 mm 126 W/m2
15:43 17.7 °C 8.3 °C 1000.2 hPa NNW 7.2 km/h 18.3 km/h 54% 0.0 mm 146 W/m2
15:48 17.9 °C 7.9 °C 1000.6 hPa NNW 13.4 km/h 21.9 km/h 52% 0.0 mm 142 W/m2
15:53 18.1 °C 8.4 °C 1000.2 hPa North 9.7 km/h 21.9 km/h 53% 0.0 mm 132 W/m2
15:58 18.3 °C 8.0 °C 1000.2 hPa NNW 7.2 km/h 18.3 km/h 51% 0.0 mm 116 W/m2
16:03 18.0 °C 8.0 °C 1000.2 hPa NNW 11.1 km/h 20.9 km/h 52% 0.0 mm 98 W/m2
16:08 17.6 °C 7.9 °C 1000.2 hPa NNW 12.2 km/h 20.9 km/h 53% 0.0 mm 46 W/m2
16:13 16.9 °C 8.1 °C 1000.2 hPa North 8.7 km/h 20.9 km/h 56% 0.0 mm 67 W/m2
16:18 17.2 °C 7.8 °C 1000.2 hPa NNW 12.2 km/h 19.5 km/h 54% 0.0 mm 55 W/m2
16:23 17.2 °C 7.3 °C 1000.2 hPa NNW 13.4 km/h 21.9 km/h 52% 0.0 mm 63 W/m2
16:28 16.9 °C 7.6 °C 1000.2 hPa NNW 14.8 km/h 21.9 km/h 54% 0.0 mm 83 W/m2
16:33 17.0 °C 7.3 °C 1000.6 hPa NW 13.4 km/h 19.5 km/h 53% 0.0 mm 84 W/m2
16:43 16.9 °C 7.3 °C 1000.2 hPa NW 12.2 km/h 20.9 km/h 53% 0.0 mm 41 W/m2
16:48 16.2 °C 7.2 °C 1000.6 hPa NW 11.1 km/h 20.9 km/h 55% 0.0 mm 35 W/m2
16:53 15.8 °C 7.3 °C 1000.6 hPa NNW 11.1 km/h 21.9 km/h 57% 0.0 mm 39 W/m2
16:58 15.8 °C 7.6 °C 1000.6 hPa NNW 7.2 km/h 21.9 km/h 58% 0.0 mm 31 W/m2
17:03 16.0 °C 7.5 °C 1000.2 hPa NNW 5.0 km/h 17.2 km/h 57% 0.0 mm 28 W/m2
17:08 15.9 °C 7.7 °C 999.9 hPa NNW 5.0 km/h 11.1 km/h 58% 0.0 mm 17 W/m2
17:13 15.2 °C 7.5 °C 1000.2 hPa North 7.2 km/h 13.4 km/h 60% 0.0 mm 10 W/m2
17:18 14.7 °C 7.9 °C 1000.2 hPa North 8.7 km/h 13.4 km/h 64% 0.0 mm 8 W/m2
17:23 14.4 °C 7.9 °C 1000.6 hPa NNW 7.2 km/h 14.8 km/h 65% 0.0 mm 3 W/m2
17:28 14.2 °C 7.7 °C 1000.2 hPa NW 7.2 km/h 15.8 km/h 65% 0.0 mm 0 W/m2
17:33 13.9 °C 7.9 °C 1000.6 hPa NW 5.0 km/h 15.8 km/h 67% 0.0 mm 0 W/m2
17:38 13.7 °C 7.9 °C 1000.6 hPa NW 3.5 km/h 11.1 km/h 68% 0.0 mm 0 W/m2
17:43 13.4 °C 7.6 °C 1000.6 hPa NW 6.1 km/h 11.1 km/h 68% 0.0 mm 0 W/m2
17:48 13.2 °C 7.7 °C 1000.6 hPa NW 6.1 km/h 11.1 km/h 69% 0.0 mm 0 W/m2
17:53 13.0 °C 7.4 °C 1000.6 hPa NW 6.1 km/h 11.1 km/h 69% 0.0 mm 0 W/m2
17:58 12.8 °C 7.7 °C 1000.9 hPa NW 6.1 km/h 11.1 km/h 71% 0.0 mm 0 W/m2
18:03 12.9 °C 7.3 °C 1000.9 hPa NNW 6.1 km/h 11.1 km/h 69% 0.0 mm 0 W/m2
18:08 12.8 °C 7.3 °C 1000.9 hPa North 6.1 km/h 11.1 km/h 69% 0.0 mm 0 W/m2
18:13 12.7 °C 7.4 °C 1000.6 hPa NNW 5.0 km/h 9.7 km/h 70% 0.0 mm 0 W/m2
18:18 12.5 °C 7.2 °C 1000.6 hPa NNW 5.0 km/h 9.7 km/h 70% 0.0 mm 0 W/m2
18:23 12.4 °C 7.1 °C 1000.6 hPa NNW 6.1 km/h 9.7 km/h 70% 0.0 mm 0 W/m2
18:28 12.3 °C 7.2 °C 1000.6 hPa NNW 6.1 km/h 11.1 km/h 71% 0.0 mm 0 W/m2
18:33 12.2 °C 7.1 °C 1000.6 hPa NNW 5.0 km/h 11.1 km/h 71% 0.0 mm 0 W/m2
18:38 12.2 °C 7.1 °C 1000.6 hPa North 6.1 km/h 11.1 km/h 71% 0.0 mm 0 W/m2
18:43 12.5 °C 6.9 °C 1000.6 hPa North 7.2 km/h 14.8 km/h 69% 0.0 mm 0 W/m2
18:48 12.6 °C 6.8 °C 1000.6 hPa NNW 6.1 km/h 14.8 km/h 68% 0.0 mm 0 W/m2
18:53 12.6 °C 6.6 °C 1000.9 hPa North 5.0 km/h 11.1 km/h 67% 0.0 mm 0 W/m2
18:58 12.6 °C 6.6 °C 1000.9 hPa NNW 6.1 km/h 11.1 km/h 67% 0.0 mm 0 W/m2
19:03 12.6 °C 6.6 °C 1000.9 hPa NNW 5.0 km/h 9.7 km/h 67% 0.0 mm 0 W/m2
19:08 12.7 °C 6.7 °C 1000.9 hPa NNW 6.1 km/h 9.7 km/h 67% 0.0 mm 0 W/m2
19:13 12.7 °C 6.7 °C 1001.2 hPa North 5.0 km/h 8.7 km/h 67% 0.0 mm 0 W/m2
19:29 12.3 °C 6.6 °C 1001.2 hPa North 3.5 km/h 8.7 km/h 68% 0.0 mm 0 W/m2
19:34 12.3 °C 6.6 °C 1001.2 hPa North 3.5 km/h 6.1 km/h 68% 0.0 mm 0 W/m2
19:39 12.3 °C 6.8 °C 1000.9 hPa North 3.5 km/h 6.1 km/h 69% 0.0 mm 0 W/m2
19:55 12.3 °C 7.0 °C 1001.2 hPa NNW 3.5 km/h 7.2 km/h 70% 0.0 mm 0 W/m2
20:00 12.1 °C 7.0 °C 1001.6 hPa NNW 2.6 km/h 7.2 km/h 71% 0.0 mm 0 W/m2
20:05 11.9 °C 7.0 °C 1001.2 hPa North 1.1 km/h 6.1 km/h 72% 0.0 mm 0 W/m2
20:10 11.6 °C 6.9 °C 1001.2 hPa North 1.1 km/h 3.5 km/h 73% 0.0 mm 0 W/m2
20:15 11.3 °C 6.8 °C 1001.2 hPa NNW 3.5 km/h 5.0 km/h 74% 0.0 mm 0 W/m2
20:20 11.1 °C 6.8 °C 1001.2 hPa NW 2.6 km/h 5.0 km/h 75% 0.0 mm 0 W/m2
20:25 11.0 °C 6.9 °C 1001.2 hPa NW 3.5 km/h 5.0 km/h 76% 0.0 mm 0 W/m2
20:30 10.7 °C 7.0 °C 1001.2 hPa NW 1.1 km/h 5.0 km/h 78% 0.0 mm 0 W/m2
20:35 10.5 °C 7.0 °C 1001.2 hPa NNW 2.6 km/h 5.0 km/h 79% 0.0 mm 0 W/m2
20:40 10.3 °C 7.0 °C 1000.9 hPa NNW 1.1 km/h 3.5 km/h 80% 0.0 mm 0 W/m2
20:45 10.2 °C 7.1 °C 1001.2 hPa NW 1.1 km/h 3.5 km/h 81% 0.0 mm 0 W/m2
20:50 10.1 °C 7.2 °C 1001.2 hPa NW 1.1 km/h 5.0 km/h 82% 0.0 mm 0 W/m2
20:55 10.1 °C 7.3 °C 1001.2 hPa NW 2.6 km/h 5.0 km/h 83% 0.0 mm 0 W/m2
21:00 10.2 °C 7.4 °C 1000.9 hPa NW 2.6 km/h 5.0 km/h 83% 0.0 mm 0 W/m2
21:05 10.1 °C 7.3 °C 1001.2 hPa NNW 2.6 km/h 5.0 km/h 83% 0.0 mm 0 W/m2
21:10 10.0 °C 7.2 °C 1001.2 hPa NNW 2.6 km/h 5.0 km/h 83% 0.0 mm 0 W/m2
21:15 9.7 °C 7.3 °C 1000.9 hPa NNW 3.5 km/h 6.1 km/h 85% 0.0 mm 0 W/m2
21:20 9.6 °C 7.2 °C 1000.9 hPa NNW 3.5 km/h 6.1 km/h 85% 0.0 mm 0 W/m2
21:25 9.5 °C 7.3 °C 1001.2 hPa NNW 2.6 km/h 6.1 km/h 86% 0.0 mm 0 W/m2
21:30 9.3 °C 7.1 °C 1000.9 hPa NNW 3.5 km/h 6.1 km/h 86% 0.0 mm 0 W/m2
21:35 9.3 °C 7.2 °C 1001.2 hPa NW 1.1 km/h 5.0 km/h 87% 0.0 mm 0 W/m2
21:40 9.2 °C 7.2 °C 1000.9 hPa NW 2.6 km/h 5.0 km/h 87% 0.0 mm 0 W/m2
21:45 9.3 °C 7.4 °C 1000.9 hPa NW 3.5 km/h 6.1 km/h 88% 0.0 mm 0 W/m2
21:50 9.5 °C 7.6 °C 1000.9 hPa NW 3.5 km/h 6.1 km/h 88% 0.0 mm 0 W/m2
21:55 9.5 °C 7.6 °C 1000.9 hPa NNW 3.5 km/h 6.1 km/h 88% 0.0 mm 0 W/m2
22:00 9.3 °C 7.4 °C 1000.9 hPa NNW 5.0 km/h 7.2 km/h 88% 0.0 mm 0 W/m2
22:05 9.4 °C 7.5 °C 1000.6 hPa NNW 6.1 km/h 8.7 km/h 88% 0.0 mm 0 W/m2
22:10 9.4 °C 7.5 °C 1000.6 hPa NNW 3.5 km/h 8.7 km/h 88% 0.0 mm 0 W/m2
22:16 9.3 °C 7.2 °C 1000.6 hPa NNW 5.0 km/h 8.7 km/h 87% 0.0 mm 0 W/m2
22:21 9.3 °C 7.2 °C 1000.6 hPa NW 6.1 km/h 8.7 km/h 87% 0.0 mm 0 W/m2
22:26 9.3 °C 7.2 °C 1000.6 hPa NW 3.5 km/h 7.2 km/h 87% 0.0 mm 0 W/m2
22:31 9.3 °C 7.2 °C 1000.6 hPa NW 3.5 km/h 7.2 km/h 87% 0.0 mm 0 W/m2
22:36 9.2 °C 7.2 °C 1000.6 hPa NW 2.6 km/h 7.2 km/h 87% 0.0 mm 0 W/m2
22:41 9.2 °C 7.2 °C 1000.6 hPa NW 3.5 km/h 7.2 km/h 87% 0.0 mm 0 W/m2
22:46 9.3 °C 7.2 °C 1000.9 hPa Calm   7.2 km/h 87% 0.0 mm 0 W/m2
22:51 9.2 °C 7.2 °C 1000.9 hPa West 2.6 km/h 7.2 km/h 87% 0.0 mm 0 W/m2
22:56 9.2 °C 7.2 °C 1000.9 hPa Calm   3.5 km/h 87% 0.0 mm 0 W/m2
23:02 9.4 °C 7.3 °C 1000.9 hPa Calm   3.5 km/h 87% 0.0 mm 0 W/m2
23:07 9.5 °C 7.4 °C 1000.9 hPa Calm   3.5 km/h 87% 0.0 mm 0 W/m2
23:12 9.8 °C 7.7 °C 1000.9 hPa Calm   2.6 km/h 87% 0.0 mm 0 W/m2
23:17 9.6 °C 7.4 °C 1000.6 hPa North 2.6 km/h 3.5 km/h 86% 0.0 mm 0 W/m2
23:22 9.3 °C 6.9 °C 1000.6 hPa NNW 3.5 km/h 5.0 km/h 85% 0.0 mm 0 W/m2
23:27 9.1 °C 6.9 °C 1000.9 hPa NW 3.5 km/h 5.0 km/h 86% 0.0 mm 0 W/m2
23:32 8.9 °C 6.8 °C 1000.6 hPa NW 2.6 km/h 6.1 km/h 87% 0.0 mm 0 W/m2
23:37 8.8 °C 6.8 °C 1000.6 hPa NW 3.5 km/h 7.2 km/h 87% 0.0 mm 0 W/m2
23:42 8.9 °C 6.8 °C 1000.6 hPa NW 5.0 km/h 7.2 km/h 87% 0.0 mm 0 W/m2
23:47 8.8 °C 6.8 °C 1000.6 hPa NW 5.0 km/h 7.2 km/h 87% 0.0 mm 0 W/m2
23:52 8.9 °C 6.8 °C 1000.6 hPa NNW 5.0 km/h 7.2 km/h 87% 0.0 mm 0 W/m2
23:57 9.0 °C 6.8 °C 1000.6 hPa NW 3.5 km/h 7.2 km/h 86% 0.0 mm 0 W/m2
Northern Hawkes Bay. New Zealand Historic Data
Compliments of Weather Underground - 2 mb